Paynes Creek, California
Current Conditions -  °F | °C
As of 3:29 AM on Monday 22 Dec 2014 (Local Time) from KRBL Reporting Station
Overcast Overcast  
Wind Chill: 55°   Ceiling: 400
Heat Index: 55°   Visibility: 7mi
Dew Point: 54°   Wind: 6mph
Humidity: 96%   Direction: 320°NW
Pressure: 30.28"   Gusts: NA
Location:  40.34°N, 121.91°W
Report Text: KRBL 221129Z AUTO 32005KT 7SM OVC004 13/12 A3028 RMK AO2 T01280122
Loading
Personal Weather Stations






























Interactive Weather Map New forecast layout! Learn more

10-Day Weather Forecast

Advertisements
Track Severe Weather on mobile